MDT,Max TemperatureF,Mean TemperatureF,Min TemperatureF,Max Dew PointF,MeanDew PointF,Min DewpointF,Max Humidity, Mean Humidity, Min Humidity, Max Sea Level PressureIn, Mean Sea Level PressureIn, Min Sea Level PressureIn, Max VisibilityMiles, Mean VisibilityMiles, Min VisibilityMiles, Max Wind SpeedMPH, Mean Wind SpeedMPH, Max Gust SpeedMPH,PrecipitationIn, CloudCover, Events, WindDirDegrees
2013-4-1,53,40,28,27,23,19,80,50,30,30.11,30.06,30.00,10,10,10,9,3,,0.00,0,,19
2013-4-2,62,44,26,27,22,18,75,44,19,30.08,30.02,29.95,10,10,10,12,3,16,0.00,0,,149
2013-4-3,60,50,39,32,26,18,61,40,25,30.10,30.03,29.96,10,10,10,17,5,21,0.00,2,,336
2013-4-4,68,54,39,32,29,25,65,40,20,30.08,29.97,29.83,10,10,10,20,6,29,0.00,3,,250
2013-4-5,59,52,46,36,30,23,54,43,25,29.87,29.77,29.70,10,10,10,31,12,44,0.00,3,,258
2013-4-6,55,48,42,30,28,25,57,45,31,29.89,29.84,29.78,10,10,10,22,12,40,0.00,2,,272
2013-4-7,55,45,35,34,28,25,81,52,31,29.80,29.67,29.56,10,10,10,22,7,31,0.00,6,,224
2013-4-8,37,26,15,34,19,10,93,85,79,30.11,29.89,29.63,10,6,1,23,12,31,0.00,7,,344
2013-4-9,21,18,14,16,12,9,93,80,68,30.26,30.20,30.11,10,8,1,17,13,25,0.00,6,,1
2013-4-10,39,22,6,25,15,1,100,71,45,30.19,30.00,29.80,10,10,10,10,3,,0.00,0,,129
2013-4-11,51,38,26,34,27,25,100,62,35,29.90,29.83,29.77,10,10,10,16,8,22,0.00,6,,14
2013-4-12,46,37,28,34,26,21,100,63,37,30.00,29.89,29.73,10,10,2,14,6,18,0.00,3,,80
2013-4-13,51,38,26,34,29,25,93,73,50,29.70,29.48,29.32,10,8,1,26,9,43,0.03,5,,341
2013-4-14,37,30,24,27,18,10,100,63,38,29.81,29.66,29.57,10,9,1,20,10,25,0.01,5,,331
2013-4-15,28,22,17,19,16,12,93,75,55,30.01,29.88,29.79,10,10,4,18,13,23,0.00,8,,4
2013-4-16,26,22,19,18,15,12,86,74,59,30.14,30.04,29.96,10,10,3,22,11,26,0.00,6,,342
2013-4-17,30,24,17,16,13,7,86,69,40,30.20,30.16,30.13,10,10,9,20,10,25,0.00,5,,339
2013-4-18,46,29,12,19,13,7,93,55,25,30.17,30.11,30.06,10,10,10,14,4,30,0.00,2,,294
2013-4-19,53,42,30,28,22,18,64,43,30,30.06,29.91,29.81,10,10,10,21,9,32,0.00,3,,270
2013-4-20,53,42,32,32,28,25,81,55,33,29.96,29.87,29.83,10,10,10,20,5,31,0.00,4,,270
2013-4-21,42,33,24,34,28,21,93,77,57,30.08,30.00,29.95,10,8,0,22,9,29,0.00,5,,9
2013-4-22,26,22,17,21,16,10,93,78,63,30.31,30.24,30.09,10,8,1,20,14,26,0.00,6,,332
2013-4-23,35,22,10,25,13,9,92,59,35,30.29,30.16,30.10,10,10,10,14,6,21,0.00,1,,189
2013-4-24,51,37,23,27,21,14,86,57,24,30.20,30.11,29.98,10,10,10,18,6,25,0.00,1,,158
2013-4-25,62,52,42,19,15,10,34,23,16,30.00,29.92,29.85,10,10,10,20,12,29,0.00,1,,259
2013-4-26,68,54,41,23,20,18,45,27,15,30.16,30.11,30.02,10,10,10,16,7,21,0.00,1,,233
2013-4-27,69,60,51,27,22,18,31,22,15,30.16,30.05,29.92,10,10,10,22,12,32,0.00,0,,252
2013-4-28,62,54,46,37,29,21,66,38,22,30.00,29.92,29.82,10,10,10,18,8,26,0.00,5,,307
2013-4-29,60,48,35,36,28,19,93,47,22,29.82,29.66,29.50,10,10,10,30,13,44,0.08,3,,252
2013-4-30,37,34,30,30,24,18,93,70,45,30.14,29.90,29.73,10,9,1,20,6,24,0.00,7,,360